Time;durP1;ratioP1;P1;durP2;ratioP2;P2;SDS_P1;SDS_P2;PMS_P1;PMS_P2;Temp;Humidity;BMP_temperature;BMP_pressure;BME280_temperature;BME280_humidity;BME280_pressure;Samples;Min_cycle;Max_cycle;Signal;HPM_P1;HPM_P2
2023/09/26 00:00:22;;;;;;;36.90;34.90;;;;;;;;;;5041179;28;20072;-63
2023/09/26 00:02:49;;;;;;;37.90;35.90;;;;;;;;;;5042925;28;20041;-63
2023/09/26 00:05:15;;;;;;;32.88;31.17;;;;;;;;;;5043682;28;20079;-64
2023/09/26 00:07:41;;;;;;;30.83;29.13;;;;;;;;;;5040780;28;20060;-63
2023/09/26 00:10:07;;;;;;;30.55;28.90;;;;;;;;;;5044200;28;20041;-63
2023/09/26 00:12:33;;;;;;;33.58;31.77;;;;;;;;;;5040566;28;20025;-63
2023/09/26 00:15:00;;;;;;;34.60;32.80;;;;;;;;;;5040759;28;20466;-63
2023/09/26 00:17:26;;;;;;;39.03;36.92;;;;;;;;;;5043317;28;20086;-63
2023/09/26 00:19:51;;;;;;;38.55;36.55;;;;;;;;;;5040555;28;20029;-63
2023/09/26 00:22:17;;;;;;;37.40;35.35;;;;;;;;;;5046218;28;20463;-64
2023/09/26 00:24:42;;;;;;;34.70;32.80;;;;;;;;;;5045251;28;20067;-63
2023/09/26 00:27:08;;;;;;;36.33;34.42;;;;;;;;;;5040879;28;20071;-64
2023/09/26 00:29:33;;;;;;;32.38;30.58;;;;;;;;;;5040425;28;20056;-64
2023/09/26 00:31:59;;;;;;;31.67;29.98;;;;;;;;;;5037584;28;20067;-65
2023/09/26 00:34:25;;;;;;;31.23;29.48;;;;;;;;;;5042330;28;20021;-64
2023/09/26 00:36:51;;;;;;;31.48;29.77;;;;;;;;;;5041637;28;20053;-66
2023/09/26 00:39:16;;;;;;;31.60;29.88;;;;;;;;;;5043392;28;20048;-66
2023/09/26 00:41:42;;;;;;;34.00;32.20;;;;;;;;;;5042536;28;20139;-66
2023/09/26 00:44:07;;;;;;;34.63;32.83;;;;;;;;;;5041446;28;20032;-65
2023/09/26 00:46:33;;;;;;;34.75;32.78;;;;;;;;;;5041250;28;20041;-66
2023/09/26 00:49:00;;;;;;;30.63;28.98;;;;;;;;;;5038510;28;20049;-65
2023/09/26 00:51:26;;;;;;;27.50;26.00;;;;;;;;;;5042232;28;20037;-65
2023/09/26 00:53:52;;;;;;;22.88;21.58;;;;;;;;;;5039090;28;20067;-65
2023/09/26 00:56:18;;;;;;;22.48;21.27;;;;;;;;;;5041666;28;20076;-65
2023/09/26 00:58:44;;;;;;;23.30;22.00;;;;;;;;;;5039567;28;20060;-65
2023/09/26 01:01:10;;;;;;;23.73;22.38;;;;;;;;;;5039642;28;20032;-65
2023/09/26 01:03:35;;;;;;;24.25;22.38;;;;;;;;;;5040325;28;20041;-65
2023/09/26 01:06:02;;;;;;;27.30;25.80;;;;;;;;;;5038860;28;20607;-65
2023/09/26 01:08:32;;;;;;;26.15;24.67;;;;;;;;;;5024123;28;20083;-66
2023/09/26 01:10:58;;;;;;;24.40;22.85;;;;;;;;;;5039201;28;20519;-66
2023/09/26 01:13:24;;;;;;;24.38;23.08;;;;;;;;;;5042997;28;20032;-65
2023/09/26 01:15:50;;;;;;;23.70;22.40;;;;;;;;;;5037253;28;20355;-66
2023/09/26 01:18:16;;;;;;;24.50;23.20;;;;;;;;;;5042480;28;20470;-66
2023/09/26 01:20:44;;;;;;;26.35;24.80;;;;;;;;;;5041323;28;20025;-65
2023/09/26 01:23:10;;;;;;;28.05;26.45;;;;;;;;;;5040260;28;20102;-66
2023/09/26 01:25:37;;;;;;;28.52;27.02;;;;;;;;;;5041036;28;20087;-64
2023/09/26 01:28:07;;;;;;;26.17;24.77;;;;;;;;;;5039194;28;20265;-64
2023/09/26 01:30:37;;;;;;;22.02;20.83;;;;;;;;;;5040355;28;20501;-64
2023/09/26 01:33:04;;;;;;;25.35;23.98;;;;;;;;;;5039777;28;20040;-64
2023/09/26 01:35:30;;;;;;;26.38;24.98;;;;;;;;;;5040670;28;20089;-64
2023/09/26 01:37:55;;;;;;;27.20;25.55;;;;;;;;;;5025492;28;20037;-64
2023/09/26 01:40:21;;;;;;;28.48;26.88;;;;;;;;;;5044140;28;20025;-65
2023/09/26 01:42:46;;;;;;;25.08;23.77;;;;;;;;;;5040627;28;20026;-64
2023/09/26 01:45:12;;;;;;;28.20;26.70;;;;;;;;;;5040580;28;20128;-64
2023/09/26 01:47:44;;;;;;;25.50;24.10;;;;;;;;;;5039423;28;20037;-64
2023/09/26 01:50:10;;;;;;;23.60;22.30;;;;;;;;;;5038713;28;20030;-64
2023/09/26 01:52:36;;;;;;;22.55;21.27;;;;;;;;;;5039703;28;20055;-64
2023/09/26 01:55:05;;;;;;;23.42;22.05;;;;;;;;;;5039791;28;20595;-64
2023/09/26 01:57:34;;;;;;;21.55;20.35;;;;;;;;;;5042762;28;20159;-64
2023/09/26 02:00:10;;;;;;;21.30;20.15;;;;;;;;;;5038910;28;20024;-64
2023/09/26 02:02:40;;;;;;;21.85;20.65;;;;;;;;;;5039126;28;20478;-65
2023/09/26 02:05:09;;;;;;;23.77;22.48;;;;;;;;;;5042090;28;20028;-64
2023/09/26 02:07:35;;;;;;;20.17;19.08;;;;;;;;;;5038303;28;20043;-64
2023/09/26 02:10:03;;;;;;;20.00;18.90;;;;;;;;;;5037230;28;20036;-64
2023/09/26 02:12:29;;;;;;;20.92;19.77;;;;;;;;;;5037949;28;20086;-64
2023/09/26 02:14:55;;;;;;;21.83;20.63;;;;;;;;;;5036380;28;20535;-64
2023/09/26 02:17:20;;;;;;;21.67;20.48;;;;;;;;;;5039920;28;20068;-64
2023/09/26 02:19:45;;;;;;;22.67;21.38;;;;;;;;;;5040470;28;20020;-65
2023/09/26 02:22:11;;;;;;;21.13;19.92;;;;;;;;;;5039476;28;20386;-64
2023/09/26 02:24:36;;;;;;;21.05;19.85;;;;;;;;;;5036345;28;20452;-64
2023/09/26 02:27:01;;;;;;;21.38;20.23;;;;;;;;;;5039391;28;20067;-64
2023/09/26 02:29:30;;;;;;;20.80;19.65;;;;;;;;;;5039568;28;20124;-64
2023/09/26 02:31:55;;;;;;;23.67;22.38;;;;;;;;;;5039340;28;20033;-66
2023/09/26 02:34:22;;;;;;;22.52;21.33;;;;;;;;;;5041207;28;20463;-64
2023/09/26 02:36:48;;;;;;;24.00;22.67;;;;;;;;;;5036561;28;20370;-64
2023/09/26 02:39:14;;;;;;;24.52;23.23;;;;;;;;;;5042841;28;20029;-64
2023/09/26 02:41:39;;;;;;;26.77;25.33;;;;;;;;;;5037077;28;20051;-63
2023/09/26 02:44:06;;;;;;;23.33;21.92;;;;;;;;;;5038989;28;20064;-65
2023/09/26 02:46:32;;;;;;;25.42;24.05;;;;;;;;;;5040727;28;20418;-65
2023/09/26 02:48:57;;;;;;;24.13;22.83;;;;;;;;;;5038624;28;20034;-65
2023/09/26 02:51:22;;;;;;;25.83;24.40;;;;;;;;;;5037469;28;20037;-65
2023/09/26 02:53:48;;;;;;;25.92;24.52;;;;;;;;;;5039314;28;20045;-65
2023/09/26 02:56:13;;;;;;;27.33;25.77;;;;;;;;;;5039019;28;20109;-65
2023/09/26 02:58:38;;;;;;;26.67;25.25;;;;;;;;;;5045250;28;20052;-65
2023/09/26 03:01:04;;;;;;;26.73;25.30;;;;;;;;;;5040490;28;20029;-65
2023/09/26 03:03:30;;;;;;;29.92;28.35;;;;;;;;;;5043469;28;20478;-65
2023/09/26 03:05:56;;;;;;;31.95;30.27;;;;;;;;;;5042924;28;20033;-65
2023/09/26 03:08:21;;;;;;;30.50;28.88;;;;;;;;;;5041630;28;20091;-65
2023/09/26 03:10:47;;;;;;;25.42;24.05;;;;;;;;;;5041823;28;20339;-65
2023/09/26 03:13:12;;;;;;;29.23;27.55;;;;;;;;;;5042314;28;20624;-65
2023/09/26 03:15:38;;;;;;;26.48;25.05;;;;;;;;;;5041379;28;20041;-65
2023/09/26 03:18:04;;;;;;;28.90;27.35;;;;;;;;;;5043593;28;20052;-65
2023/09/26 03:20:29;;;;;;;27.67;26.20;;;;;;;;;;5043605;28;20026;-65
2023/09/26 03:22:55;;;;;;;28.42;26.73;;;;;;;;;;5039843;28;20074;-65
2023/09/26 03:25:20;;;;;;;27.95;26.48;;;;;;;;;;5043010;28;20117;-65
2023/09/26 03:27:46;;;;;;;30.15;28.48;;;;;;;;;;5041200;28;20370;-65
2023/09/26 03:30:15;;;;;;;29.00;27.45;;;;;;;;;;5043038;28;20147;-65
2023/09/26 03:32:40;;;;;;;27.08;25.65;;;;;;;;;;5040661;28;20041;-65
2023/09/26 03:35:06;;;;;;;27.48;26.00;;;;;;;;;;5042013;28;20041;-65
2023/09/26 03:37:32;;;;;;;25.27;23.88;;;;;;;;;;5042600;28;20087;-65
2023/09/26 03:39:58;;;;;;;26.08;24.67;;;;;;;;;;5044349;28;20037;-64
2023/09/26 03:42:24;;;;;;;28.52;26.92;;;;;;;;;;5042682;28;20025;-66
2023/09/26 03:44:50;;;;;;;24.95;23.65;;;;;;;;;;5041188;28;20028;-65
2023/09/26 03:47:16;;;;;;;27.42;25.98;;;;;;;;;;5040448;28;20044;-65
2023/09/26 03:49:41;;;;;;;27.10;25.60;;;;;;;;;;5041543;28;20064;-65
2023/09/26 03:52:07;;;;;;;30.75;29.15;;;;;;;;;;5041832;28;20068;-65
2023/09/26 03:54:34;;;;;;;27.40;25.85;;;;;;;;;;5041429;28;20048;-65
2023/09/26 03:56:59;;;;;;;28.25;26.75;;;;;;;;;;5043521;28;20037;-65
2023/09/26 03:59:24;;;;;;;29.00;27.40;;;;;;;;;;5045145;28;20026;-65
2023/09/26 04:01:50;;;;;;;28.05;26.55;;;;;;;;;;5045772;28;20040;-65
2023/09/26 04:04:15;;;;;;;28.08;26.45;;;;;;;;;;5048365;28;20650;-65
2023/09/26 04:06:41;;;;;;;29.60;28.00;;;;;;;;;;5039791;28;20025;-66
2023/09/26 04:09:07;;;;;;;28.92;27.23;;;;;;;;;;5046222;28;20529;-65
2023/09/26 04:11:32;;;;;;;29.58;27.98;;;;;;;;;;5040902;28;20048;-65
2023/09/26 04:13:57;;;;;;;28.30;26.80;;;;;;;;;;5045397;28;20082;-65
2023/09/26 04:16:23;;;;;;;30.67;29.08;;;;;;;;;;5039457;28;20036;-65
2023/09/26 04:18:49;;;;;;;29.75;28.13;;;;;;;;;;5039686;28;20033;-65
2023/09/26 04:21:14;;;;;;;27.42;25.92;;;;;;;;;;5043702;28;20040;-65
2023/09/26 04:23:39;;;;;;;26.55;25.13;;;;;;;;;;5038741;28;20057;-65
2023/09/26 04:26:14;;;;;;;25.40;24.00;;;;;;;;;;5039005;28;20376;-65
2023/09/26 04:28:43;;;;;;;25.60;24.20;;;;;;;;;;5038941;28;20367;-65
2023/09/26 04:31:17;;;;;;;25.67;24.08;;;;;;;;;;5041010;28;20041;-65
2023/09/26 04:33:43;;;;;;;27.48;25.63;;;;;;;;;;5040884;28;20041;-65
2023/09/26 04:36:09;;;;;;;27.42;25.92;;;;;;;;;;5042741;28;20124;-64
2023/09/26 04:38:35;;;;;;;28.00;26.38;;;;;;;;;;5040509;28;20459;-65
2023/09/26 04:41:02;;;;;;;27.00;25.50;;;;;;;;;;5035789;28;22391;-65
2023/09/26 04:43:29;;;;;;;27.05;25.58;;;;;;;;;;5040003;28;20064;-65
2023/09/26 04:45:55;;;;;;;28.38;26.88;;;;;;;;;;5042132;28;20635;-64
2023/09/26 04:48:20;;;;;;;26.75;25.25;;;;;;;;;;5042655;28;20051;-65
2023/09/26 04:50:46;;;;;;;28.38;26.88;;;;;;;;;;5042292;28;20414;-65
2023/09/26 04:53:11;;;;;;;27.50;26.00;;;;;;;;;;5041373;28;20028;-65
2023/09/26 04:55:37;;;;;;;30.60;28.90;;;;;;;;;;5038467;28;20124;-65
2023/09/26 04:58:02;;;;;;;26.58;25.17;;;;;;;;;;5037585;28;20087;-65
2023/09/26 05:00:29;;;;;;;25.73;24.33;;;;;;;;;;5040195;28;20508;-65
2023/09/26 05:02:54;;;;;;;26.92;25.42;;;;;;;;;;5038114;28;21141;-65
2023/09/26 05:05:20;;;;;;;28.17;26.67;;;;;;;;;;5039805;28;20041;-64
2023/09/26 05:07:46;;;;;;;26.70;25.30;;;;;;;;;;5041437;28;20053;-64
2023/09/26 05:10:12;;;;;;;28.60;27.10;;;;;;;;;;5040470;28;20629;-64
2023/09/26 05:12:40;;;;;;;27.85;26.35;;;;;;;;;;5042400;28;20044;-65
2023/09/26 05:15:13;;;;;;;28.90;27.30;;;;;;;;;;5036010;28;20460;-64
2023/09/26 05:17:49;;;;;;;29.55;27.95;;;;;;;;;;5038499;28;20048;-64
2023/09/26 05:20:15;;;;;;;28.08;26.48;;;;;;;;;;5042716;28;20096;-65
2023/09/26 05:22:43;;;;;;;27.33;25.83;;;;;;;;;;5039455;28;20061;-65
2023/09/26 05:25:09;;;;;;;28.70;27.15;;;;;;;;;;5037528;28;20036;-66
2023/09/26 05:27:36;;;;;;;26.98;25.48;;;;;;;;;;5041963;28;20033;-66
2023/09/26 05:30:02;;;;;;;28.98;27.38;;;;;;;;;;5037315;28;20045;-65
2023/09/26 05:32:28;;;;;;;26.38;24.95;;;;;;;;;;5040853;28;20041;-66
2023/09/26 05:34:53;;;;;;;28.33;26.83;;;;;;;;;;5036581;28;20048;-65
2023/09/26 05:37:18;;;;;;;27.70;26.20;;;;;;;;;;5037858;28;20033;-64
2023/09/26 05:39:44;;;;;;;27.13;25.52;;;;;;;;;;5039617;28;20075;-65
2023/09/26 05:42:10;;;;;;;28.10;26.60;;;;;;;;;;5042322;28;20466;-65
2023/09/26 05:44:36;;;;;;;29.15;27.33;;;;;;;;;;5040360;28;20037;-65
2023/09/26 05:47:02;;;;;;;26.77;25.33;;;;;;;;;;5040093;28;20036;-65
2023/09/26 05:49:28;;;;;;;28.48;26.88;;;;;;;;;;5041387;28;20044;-63
2023/09/26 05:51:53;;;;;;;27.75;26.17;;;;;;;;;;5038773;28;20437;-63
2023/09/26 05:54:19;;;;;;;29.50;27.90;;;;;;;;;;5035427;28;20167;-64
2023/09/26 05:56:44;;;;;;;29.90;28.30;;;;;;;;;;5041766;28;20458;-65
2023/09/26 05:59:10;;;;;;;28.25;26.65;;;;;;;;;;5042075;28;20094;-65
2023/09/26 06:01:35;;;;;;;30.08;28.48;;;;;;;;;;5040106;28;20040;-65
2023/09/26 06:04:00;;;;;;;30.60;28.90;;;;;;;;;;5037503;28;20088;-65
2023/09/26 06:06:26;;;;;;;29.88;28.27;;;;;;;;;;5037232;28;20029;-65
2023/09/26 06:08:51;;;;;;;30.42;28.73;;;;;;;;;;5037770;28;20037;-65
2023/09/26 06:11:17;;;;;;;29.90;28.25;;;;;;;;;;5039461;28;20040;-65
2023/09/26 06:13:44;;;;;;;29.25;27.60;;;;;;;;;;5036702;28;20033;-65
2023/09/26 06:16:09;;;;;;;31.95;30.25;;;;;;;;;;5039383;28;20132;-65
2023/09/26 06:18:35;;;;;;;30.95;29.27;;;;;;;;;;5039057;28;20127;-64
2023/09/26 06:21:08;;;;;;;31.08;29.38;;;;;;;;;;5040300;28;20037;-64
2023/09/26 06:23:36;;;;;;;29.95;28.35;;;;;;;;;;5038109;28;20072;-64
2023/09/26 06:26:03;;;;;;;32.55;30.80;;;;;;;;;;5037681;28;20120;-63
2023/09/26 06:28:28;;;;;;;31.63;29.95;;;;;;;;;;5045499;28;20173;-64
2023/09/26 06:30:54;;;;;;;30.10;28.48;;;;;;;;;;5040263;28;20037;-63
2023/09/26 06:33:20;;;;;;;29.20;27.60;;;;;;;;;;5043702;28;20064;-63
2023/09/26 06:35:45;;;;;;;28.27;26.77;;;;;;;;;;5042244;28;20032;-63
2023/09/26 06:38:11;;;;;;;32.58;30.85;;;;;;;;;;5046976;28;20036;-64
2023/09/26 06:40:37;;;;;;;31.67;29.90;;;;;;;;;;5046308;28;20028;-63
2023/09/26 06:43:02;;;;;;;27.63;26.13;;;;;;;;;;5040996;28;20066;-63
2023/09/26 06:45:29;;;;;;;29.30;27.70;;;;;;;;;;5044311;28;20045;-63
2023/09/26 06:47:54;;;;;;;29.85;28.25;;;;;;;;;;5039080;28;20079;-64
2023/09/26 06:50:21;;;;;;;29.42;27.80;;;;;;;;;;5042973;28;20057;-63
2023/09/26 06:52:47;;;;;;;27.20;25.70;;;;;;;;;;5043678;28;20029;-63
2023/09/26 06:55:12;;;;;;;28.58;27.00;;;;;;;;;;5042652;28;20105;-64
2023/09/26 06:57:38;;;;;;;27.75;26.25;;;;;;;;;;5040932;28;20332;-63
2023/09/26 07:00:12;;;;;;;28.52;25.23;;;;;;;;;;5039430;28;20033;-63
2023/09/26 07:02:39;;;;;;;28.85;27.35;;;;;;;;;;5042480;28;20033;-63
2023/09/26 07:05:07;;;;;;;29.60;28.02;;;;;;;;;;5044596;28;20123;-63
2023/09/26 07:07:32;;;;;;;27.23;25.75;;;;;;;;;;5041468;28;20876;-63
2023/09/26 07:09:58;;;;;;;26.60;25.10;;;;;;;;;;5039550;28;20045;-64
2023/09/26 07:12:26;;;;;;;30.02;28.42;;;;;;;;;;5038802;28;20347;-64
2023/09/26 07:14:57;;;;;;;30.13;28.52;;;;;;;;;;5044106;28;20152;-64
2023/09/26 07:17:23;;;;;;;29.00;27.42;;;;;;;;;;5043859;28;20055;-63
2023/09/26 07:19:49;;;;;;;29.00;27.42;;;;;;;;;;5044236;28;20455;-63
2023/09/26 07:22:14;;;;;;;27.40;25.90;;;;;;;;;;5041536;28;20040;-63
2023/09/26 07:24:40;;;;;;;27.77;26.30;;;;;;;;;;5044633;28;20417;-62
2023/09/26 07:27:07;;;;;;;26.42;25.02;;;;;;;;;;5044758;28;20029;-63
2023/09/26 07:29:32;;;;;;;26.73;25.27;;;;;;;;;;5042686;28;20369;-62
2023/09/26 07:31:58;;;;;;;24.85;23.50;;;;;;;;;;5042167;28;20041;-63
2023/09/26 07:34:23;;;;;;;26.08;24.67;;;;;;;;;;5037999;28;20635;-63
2023/09/26 07:36:49;;;;;;;25.48;24.13;;;;;;;;;;5039867;28;20031;-63
2023/09/26 07:39:16;;;;;;;25.30;23.55;;;;;;;;;;5043345;28;20061;-64
2023/09/26 07:41:41;;;;;;;24.20;22.80;;;;;;;;;;5040257;28;20037;-63
2023/09/26 07:44:06;;;;;;;21.42;20.25;;;;;;;;;;5038646;28;20033;-63
2023/09/26 07:46:32;;;;;;;19.90;18.80;;;;;;;;;;5042509;28;20048;-63
2023/09/26 07:48:57;;;;;;;20.50;19.40;;;;;;;;;;5042179;28;20048;-64
2023/09/26 07:51:22;;;;;;;21.55;20.33;;;;;;;;;;5043131;28;20057;-62
2023/09/26 07:53:48;;;;;;;18.23;17.20;;;;;;;;;;5039697;28;20342;-64
2023/09/26 07:56:13;;;;;;;18.42;17.23;;;;;;;;;;5042168;28;20387;-64
2023/09/26 07:58:39;;;;;;;16.58;15.57;;;;;;;;;;5045699;28;20037;-62
2023/09/26 08:01:09;;;;;;;18.75;17.65;;;;;;;;;;5040922;28;20358;-63
2023/09/26 08:03:38;;;;;;;17.27;16.27;;;;;;;;;;5045086;28;20112;-63
2023/09/26 08:06:05;;;;;;;16.85;15.85;;;;;;;;;;5040863;28;20124;-63
2023/09/26 08:08:31;;;;;;;17.38;16.38;;;;;;;;;;5042928;28;20037;-63
2023/09/26 08:11:08;;;;;;;17.98;16.98;;;;;;;;;;5040967;28;20036;-63
2023/09/26 08:13:34;;;;;;;17.15;16.15;;;;;;;;;;5037661;28;20692;-63
2023/09/26 08:15:59;;;;;;;18.15;17.05;;;;;;;;;;5039416;28;20084;-63
2023/09/26 08:18:25;;;;;;;16.67;15.68;;;;;;;;;;5042432;28;20146;-63
2023/09/26 08:20:55;;;;;;;16.73;15.70;;;;;;;;;;5040669;28;20044;-63
2023/09/26 08:23:21;;;;;;;15.50;14.55;;;;;;;;;;5042273;28;20665;-63
2023/09/26 08:25:46;;;;;;;16.80;15.80;;;;;;;;;;5039131;28;20041;-63
2023/09/26 08:28:12;;;;;;;20.00;18.90;;;;;;;;;;5042334;28;20037;-62
2023/09/26 08:30:37;;;;;;;18.08;16.98;;;;;;;;;;5037137;28;20094;-62
2023/09/26 08:33:02;;;;;;;16.65;15.68;;;;;;;;;;5046964;28;20394;-62
2023/09/26 08:35:31;;;;;;;17.90;16.90;;;;;;;;;;5041863;28;20033;-63
2023/09/26 08:37:56;;;;;;;17.92;16.80;;;;;;;;;;5039206;28;20032;-64
2023/09/26 08:40:25;;;;;;;20.42;19.33;;;;;;;;;;5040147;28;20562;-64
2023/09/26 08:42:52;;;;;;;15.93;15.02;;;;;;;;;;5039609;28;20057;-64
2023/09/26 08:45:18;;;;;;;17.60;16.60;;;;;;;;;;5040516;28;20034;-65
2023/09/26 08:47:44;;;;;;;18.90;17.83;;;;;;;;;;5037281;28;20489;-64
2023/09/26 08:50:10;;;;;;;23.70;22.42;;;;;;;;;;5037712;28;20052;-65
2023/09/26 08:52:36;;;;;;;23.05;21.85;;;;;;;;;;5035357;28;20123;-64
2023/09/26 08:55:05;;;;;;;25.85;24.45;;;;;;;;;;5039183;28;20191;-63
2023/09/26 08:57:31;;;;;;;25.17;23.80;;;;;;;;;;5036738;28;20062;-64
2023/09/26 09:00:00;;;;;;;26.75;25.35;;;;;;;;;;5035979;28;20029;-64
2023/09/26 09:02:26;;;;;;;26.05;24.63;;;;;;;;;;5038283;28;20142;-63
2023/09/26 09:04:52;;;;;;;25.25;23.85;;;;;;;;;;5038391;28;20124;-63
2023/09/26 09:07:17;;;;;;;31.98;30.17;;;;;;;;;;5035810;28;20067;-64
2023/09/26 09:10:13;;;;;;;20.23;19.08;;;;;;;;;;5037944;28;20522;-63
2023/09/26 09:12:40;;;;;;;21.58;20.25;;;;;;;;;;5032733;28;20049;-63
2023/09/26 09:15:15;;;;;;;22.83;21.58;;;;;;;;;;5038316;28;20032;-63
2023/09/26 09:17:44;;;;;;;19.98;18.88;;;;;;;;;;5035924;28;20138;-62
2023/09/26 09:20:13;;;;;;;20.38;19.20;;;;;;;;;;5039418;28;20087;-63
2023/09/26 09:22:38;;;;;;;24.25;22.95;;;;;;;;;;5037353;28;20045;-63
2023/09/26 09:25:04;;;;;;;21.23;20.02;;;;;;;;;;5037155;28;20517;-63
2023/09/26 09:27:34;;;;;;;28.27;26.77;;;;;;;;;;5043064;28;20826;-63
2023/09/26 09:30:14;;;;;;;22.38;21.08;;;;;;;;;;5036197;28;20079;-63
2023/09/26 09:32:41;;;;;;;35.42;33.28;;;;;;;;;;5036482;28;20138;-64
2023/09/26 09:35:13;;;;;;;20.25;19.15;;;;;;;;;;5038304;28;20029;-63
2023/09/26 09:37:47;;;;;;;22.42;21.08;;;;;;;;;;5040321;28;20475;-64
2023/09/26 09:40:17;;;;;;;26.13;24.70;;;;;;;;;;5038373;28;20546;-63
2023/09/26 09:42:43;;;;;;;21.83;20.63;;;;;;;;;;5039501;28;20057;-63
2023/09/26 09:45:09;;;;;;;25.73;24.33;;;;;;;;;;5038558;28;20051;-63
2023/09/26 09:47:37;;;;;;;23.23;21.95;;;;;;;;;;5039997;28;20040;-64
2023/09/26 09:50:05;;;;;;;21.52;20.33;;;;;;;;;;5043951;28;20052;-64
2023/09/26 09:52:33;;;;;;;21.30;20.10;;;;;;;;;;5039046;28;20041;-64
2023/09/26 09:55:03;;;;;;;25.83;24.42;;;;;;;;;;5038887;28;20055;-64
2023/09/26 09:57:33;;;;;;;29.77;28.17;;;;;;;;;;5039142;28;20029;-64
2023/09/26 09:59:59;;;;;;;22.45;21.25;;;;;;;;;;5038796;28;20045;-64
2023/09/26 10:02:24;;;;;;;22.52;21.23;;;;;;;;;;5037911;28;20029;-64
2023/09/26 10:04:55;;;;;;;21.58;20.38;;;;;;;;;;5041740;28;20143;-64
2023/09/26 10:07:23;;;;;;;42.72;40.55;;;;;;;;;;5037570;28;20520;-64
2023/09/26 10:09:50;;;;;;;41.80;39.60;;;;;;;;;;5041009;28;20029;-63
2023/09/26 10:12:16;;;;;;;36.00;34.10;;;;;;;;;;5038687;28;20030;-64
2023/09/26 10:14:41;;;;;;;47.55;45.10;;;;;;;;;;5039313;28;20051;-64
2023/09/26 10:17:07;;;;;;;48.15;45.70;;;;;;;;;;5040953;28;20041;-64
2023/09/26 10:19:33;;;;;;;37.00;35.10;;;;;;;;;;5042440;28;20025;-64
2023/09/26 10:22:19;;;;;;;35.08;33.28;;;;;;;;;;5036506;28;20051;-64
2023/09/26 10:24:48;;;;;;;37.45;35.53;;;;;;;;;;5038775;28;20537;-64
2023/09/26 10:27:22;;;;;;;20.42;19.33;;;;;;;;;;5039696;28;20458;-65
2023/09/26 10:29:50;;;;;;;35.65;33.78;;;;;;;;;;5038691;28;20152;-65
2023/09/26 10:32:27;;;;;;;34.38;32.60;;;;;;;;;;5040685;28;20036;-64
2023/09/26 10:34:52;;;;;;;35.85;33.95;;;;;;;;;;5042601;28;20076;-64
2023/09/26 10:37:21;;;;;;;41.88;39.67;;;;;;;;;;5040252;28;20037;-64
2023/09/26 10:39:46;;;;;;;38.33;36.35;;;;;;;;;;5039034;28;20133;-65
2023/09/26 10:42:13;;;;;;;38.17;36.20;;;;;;;;;;5039564;28;20070;-64
2023/09/26 10:44:43;;;;;;;36.85;34.92;;;;;;;;;;5033588;28;20131;-63
2023/09/26 10:47:12;;;;;;;32.85;31.15;;;;;;;;;;5038642;28;20033;-63
2023/09/26 10:49:37;;;;;;;45.28;42.97;;;;;;;;;;5040256;28;20333;-65
2023/09/26 10:52:07;;;;;;;80.13;76.18;;;;;;;;;;5040920;28;20459;-65
2023/09/26 10:54:34;;;;;;;47.47;45.05;;;;;;;;;;5038780;28;20072;-64
2023/09/26 10:57:00;;;;;;;102.93;97.82;;;;;;;;;;5039615;28;20029;-65
2023/09/26 10:59:27;;;;;;;115.47;109.82;;;;;;;;;;5037234;28;20022;-66
2023/09/26 11:01:56;;;;;;;80.82;76.85;;;;;;;;;;5039151;28;20025;-65
2023/09/26 11:04:28;;;;;;;57.65;54.78;;;;;;;;;;5043265;28;20067;-66
2023/09/26 11:07:03;;;;;;;76.22;72.45;;;;;;;;;;5040199;28;20032;-64
2023/09/26 11:09:29;;;;;;;78.13;74.28;;;;;;;;;;5041196;28;20071;-64
2023/09/26 11:11:56;;;;;;;140.77;133.77;;;;;;;;;;5040971;28;20037;-65
2023/09/26 11:14:26;;;;;;;149.43;142.15;;;;;;;;;;5037922;28;20484;-65
2023/09/26 11:16:52;;;;;;;148.55;141.30;;;;;;;;;;5041236;28;20037;-64
2023/09/26 11:19:18;;;;;;;134.98;128.27;;;;;;;;;;5043500;28;20033;-64
2023/09/26 11:21:43;;;;;;;149.63;142.30;;;;;;;;;;5040865;28;20455;-65
2023/09/26 11:24:18;;;;;;;153.68;146.07;;;;;;;;;;5042310;28;20518;-64
2023/09/26 11:26:44;;;;;;;129.27;122.97;;;;;;;;;;5043134;28;20036;-64
2023/09/26 11:29:10;;;;;;;160.73;152.90;;;;;;;;;;5042806;28;20157;-65
2023/09/26 11:31:36;;;;;;;153.85;146.35;;;;;;;;;;5041326;28;20537;-64
2023/09/26 11:34:02;;;;;;;163.55;155.57;;;;;;;;;;5043473;28;20040;-64
2023/09/26 11:36:27;;;;;;;122.57;116.53;;;;;;;;;;5041811;28;20469;-64
2023/09/26 11:38:53;;;;;;;160.73;152.93;;;;;;;;;;5041812;28;20067;-65
2023/09/26 11:41:20;;;;;;;127.05;120.82;;;;;;;;;;5039980;28;20067;-65
2023/09/26 11:43:47;;;;;;;135.73;129.07;;;;;;;;;;5042300;28;20028;-65
2023/09/26 11:46:14;;;;;;;136.77;130.05;;;;;;;;;;5042833;28;20121;-64
2023/09/26 11:48:42;;;;;;;135.32;128.73;;;;;;;;;;5041793;28;20838;-65
2023/09/26 11:51:08;;;;;;;127.55;121.25;;;;;;;;;;5042886;28;20040;-65
2023/09/26 11:53:33;;;;;;;100.47;95.55;;;;;;;;;;5039792;28;20116;-65
2023/09/26 11:55:58;;;;;;;116.38;110.68;;;;;;;;;;5041781;28;20517;-65
2023/09/26 11:58:24;;;;;;;67.88;64.47;;;;;;;;;;5044164;28;20064;-64
2023/09/26 12:00:49;;;;;;;86.18;81.95;;;;;;;;;;5047753;28;20043;-65
2023/09/26 12:03:15;;;;;;;94.50;89.78;;;;;;;;;;5044453;28;20470;-65
2023/09/26 12:05:40;;;;;;;50.30;47.75;;;;;;;;;;5047246;28;20117;-64
2023/09/26 12:08:06;;;;;;;42.17;40.05;;;;;;;;;;5047767;28;20378;-64
2023/09/26 12:10:31;;;;;;;35.40;33.58;;;;;;;;;;5040847;28;20025;-64
2023/09/26 12:12:57;;;;;;;35.72;33.88;;;;;;;;;;5048274;28;20031;-65
2023/09/26 12:15:25;;;;;;;35.70;33.85;;;;;;;;;;5044431;28;20036;-64
2023/09/26 12:17:52;;;;;;;35.47;33.67;;;;;;;;;;5044546;28;20614;-64
2023/09/26 12:20:22;;;;;;;30.00;28.45;;;;;;;;;;5042697;28;20030;-65
2023/09/26 12:22:49;;;;;;;32.42;29.70;;;;;;;;;;5046552;28;20033;-65
2023/09/26 12:25:15;;;;;;;23.80;22.45;;;;;;;;;;5045465;28;20045;-65
2023/09/26 12:27:40;;;;;;;20.38;19.27;;;;;;;;;;5042536;28;20033;-65
2023/09/26 12:30:06;;;;;;;25.20;23.83;;;;;;;;;;5039343;28;20026;-64
2023/09/26 12:32:32;;;;;;;20.95;19.85;;;;;;;;;;5043536;28;20202;-65
2023/09/26 12:34:57;;;;;;;21.55;20.38;;;;;;;;;;5041680;28;20045;-64
2023/09/26 12:37:23;;;;;;;23.13;21.88;;;;;;;;;;5043315;28;20051;-64
2023/09/26 12:39:48;;;;;;;22.00;20.80;;;;;;;;;;5044626;28;20067;-64
2023/09/26 12:42:14;;;;;;;22.55;21.25;;;;;;;;;;5042444;28;20079;-65
2023/09/26 12:44:40;;;;;;;20.58;19.48;;;;;;;;;;5041804;28;20048;-65
2023/09/26 12:47:07;;;;;;;22.80;21.60;;;;;;;;;;5041075;28;20029;-65
2023/09/26 12:49:33;;;;;;;23.23;21.95;;;;;;;;;;5026049;28;20124;-65
2023/09/26 12:51:58;;;;;;;21.25;20.13;;;;;;;;;;5040095;28;20493;-65
2023/09/26 12:54:25;;;;;;;25.17;23.77;;;;;;;;;;5044927;28;20081;-64
2023/09/26 12:56:51;;;;;;;21.67;20.48;;;;;;;;;;5043606;28;20040;-65
2023/09/26 12:59:16;;;;;;;21.27;20.15;;;;;;;;;;5042799;28;20056;-65
2023/09/26 13:01:42;;;;;;;21.33;20.15;;;;;;;;;;5042775;28;20139;-65
2023/09/26 13:04:07;;;;;;;21.08;19.70;;;;;;;;;;5045681;28;20032;-65
2023/09/26 13:06:33;;;;;;;21.35;20.15;;;;;;;;;;5040056;28;20466;-65
2023/09/26 13:08:59;;;;;;;20.67;19.55;;;;;;;;;;5043395;28;20032;-66
2023/09/26 13:11:25;;;;;;;23.00;21.80;;;;;;;;;;5041538;28;20036;-65
2023/09/26 13:13:50;;;;;;;21.92;20.70;;;;;;;;;;5042645;28;20090;-66
2023/09/26 13:16:16;;;;;;;21.20;20.02;;;;;;;;;;5041032;28;20060;-66
2023/09/26 13:18:41;;;;;;;24.27;22.98;;;;;;;;;;5040205;28;20037;-66
2023/09/26 13:21:07;;;;;;;22.70;21.42;;;;;;;;;;5041004;28;20238;-66
2023/09/26 13:23:33;;;;;;;22.90;21.67;;;;;;;;;;5042280;28;20659;-64
2023/09/26 13:25:59;;;;;;;21.48;20.30;;;;;;;;;;5045127;28;20702;-64
2023/09/26 13:28:25;;;;;;;19.80;18.70;;;;;;;;;;5042836;28;20071;-64
2023/09/26 13:30:51;;;;;;;21.27;20.10;;;;;;;;;;5044930;28;20126;-64
2023/09/26 13:33:18;;;;;;;23.92;22.63;;;;;;;;;;5040291;28;20091;-66
2023/09/26 13:35:44;;;;;;;21.85;20.65;;;;;;;;;;5047188;28;20166;-65
2023/09/26 13:38:10;;;;;;;20.23;19.13;;;;;;;;;;5042378;28;20064;-64
2023/09/26 13:40:36;;;;;;;20.95;19.80;;;;;;;;;;5040390;28;20053;-65
2023/09/26 13:43:01;;;;;;;18.58;17.58;;;;;;;;;;5045508;28;20040;-65
2023/09/26 13:45:27;;;;;;;20.35;19.15;;;;;;;;;;5045366;28;20029;-67
2023/09/26 13:47:52;;;;;;;19.77;18.67;;;;;;;;;;5044233;28;20069;-63
2023/09/26 13:50:18;;;;;;;18.95;17.92;;;;;;;;;;5042982;28;20045;-64
2023/09/26 13:52:43;;;;;;;19.30;18.20;;;;;;;;;;5045037;28;20040;-65
2023/09/26 13:55:09;;;;;;;19.65;18.55;;;;;;;;;;5044617;28;20151;-67
2023/09/26 13:57:34;;;;;;;21.35;20.15;;;;;;;;;;5042513;28;20036;-65
2023/09/26 14:00:00;;;;;;;19.52;18.42;;;;;;;;;;5044332;28;20038;-66
2023/09/26 14:02:25;;;;;;;21.20;20.00;;;;;;;;;;5041372;28;20455;-68
2023/09/26 14:04:51;;;;;;;21.27;20.13;;;;;;;;;;5039844;28;20074;-66
2023/09/26 14:07:17;;;;;;;18.98;17.90;;;;;;;;;;5047897;28;20464;-66
2023/09/26 14:09:43;;;;;;;18.52;17.52;;;;;;;;;;5044188;28;20118;-68
2023/09/26 14:12:09;;;;;;;18.95;17.85;;;;;;;;;;5044395;28;20048;-68